sensor_id;sensor_type;location;lat;lon;timestamp;temperature;humidity
23669;DHT22;12011;47.422;15.018;2023-05-07T00:00:13;9.50;99.90
23669;DHT22;12011;47.422;15.018;2023-05-07T00:02:49;9.40;99.90
23669;DHT22;12011;47.422;15.018;2023-05-07T00:05:21;9.40;99.90
23669;DHT22;12011;47.422;15.018;2023-05-07T00:07:57;9.20;99.90
23669;DHT22;12011;47.422;15.018;2023-05-07T00:10:28;9.00;99.90
23669;DHT22;12011;47.422;15.018;2023-05-07T00:13:03;8.90;99.90
23669;DHT22;12011;47.422;15.018;2023-05-07T00:15:34;8.90;99.90
23669;DHT22;12011;47.422;15.018;2023-05-07T00:18:07;9.00;99.90
23669;DHT22;12011;47.422;15.018;2023-05-07T00:20:45;8.90;99.90
23669;DHT22;12011;47.422;15.018;2023-05-07T00:23:14;8.90;99.90
23669;DHT22;12011;47.422;15.018;2023-05-07T00:25:47;8.80;99.90
23669;DHT22;12011;47.422;15.018;2023-05-07T00:28:18;8.80;99.90
23669;DHT22;12011;47.422;15.018;2023-05-07T00:30:52;8.70;99.90
23669;DHT22;12011;47.422;15.018;2023-05-07T00:33:25;8.70;99.90
23669;DHT22;12011;47.422;15.018;2023-05-07T00:36:00;8.60;99.90
23669;DHT22;12011;47.422;15.018;2023-05-07T00:38:35;8.60;99.90
23669;DHT22;12011;47.422;15.018;2023-05-07T00:41:07;8.70;99.90
23669;DHT22;12011;47.422;15.018;2023-05-07T00:43:41;8.70;99.90
23669;DHT22;12011;47.422;15.018;2023-05-07T00:46:15;8.70;99.90
23669;DHT22;12011;47.422;15.018;2023-05-07T00:48:48;8.80;99.90
23669;DHT22;12011;47.422;15.018;2023-05-07T00:54:11;8.60;99.90
23669;DHT22;12011;47.422;15.018;2023-05-07T00:56:53;8.50;99.90
23669;DHT22;12011;47.422;15.018;2023-05-07T00:59:26;8.30;99.90
23669;DHT22;12011;47.422;15.018;2023-05-07T01:02:01;8.30;99.90
23669;DHT22;12011;47.422;15.018;2023-05-07T01:04:31;8.30;99.90
23669;DHT22;12011;47.422;15.018;2023-05-07T01:09:52;8.30;99.90
23669;DHT22;12011;47.422;15.018;2023-05-07T01:12:24;8.30;99.90
23669;DHT22;12011;47.422;15.018;2023-05-07T01:15:10;8.30;99.90
23669;DHT22;12011;47.422;15.018;2023-05-07T01:17:43;8.30;99.90
23669;DHT22;12011;47.422;15.018;2023-05-07T01:20:23;8.40;99.90
23669;DHT22;12011;47.422;15.018;2023-05-07T01:23:01;8.20;99.90
23669;DHT22;12011;47.422;15.018;2023-05-07T01:25:36;8.20;99.90
23669;DHT22;12011;47.422;15.018;2023-05-07T01:28:11;8.10;99.90
23669;DHT22;12011;47.422;15.018;2023-05-07T01:30:58;8.10;99.90
23669;DHT22;12011;47.422;15.018;2023-05-07T01:33:35;7.80;99.90
23669;DHT22;12011;47.422;15.018;2023-05-07T01:36:09;7.70;99.90
23669;DHT22;12011;47.422;15.018;2023-05-07T01:38:45;7.70;99.90
23669;DHT22;12011;47.422;15.018;2023-05-07T01:41:19;7.70;99.90
23669;DHT22;12011;47.422;15.018;2023-05-07T01:43:55;7.70;99.90
23669;DHT22;12011;47.422;15.018;2023-05-07T01:46:33;7.00;99.90
23669;DHT22;12011;47.422;15.018;2023-05-07T01:49:06;7.60;99.90
23669;DHT22;12011;47.422;15.018;2023-05-07T01:51:36;7.50;99.90
23669;DHT22;12011;47.422;15.018;2023-05-07T01:54:09;7.40;99.90
23669;DHT22;12011;47.422;15.018;2023-05-07T01:56:43;7.50;99.90
23669;DHT22;12011;47.422;15.018;2023-05-07T01:59:25;7.60;99.90
23669;DHT22;12011;47.422;15.018;2023-05-07T02:01:55;7.70;99.90
23669;DHT22;12011;47.422;15.018;2023-05-07T02:04:29;7.80;99.90
23669;DHT22;12011;47.422;15.018;2023-05-07T02:07:03;7.70;99.90
23669;DHT22;12011;47.422;15.018;2023-05-07T02:09:40;7.80;99.90
23669;DHT22;12011;47.422;15.018;2023-05-07T02:12:15;7.90;99.90
23669;DHT22;12011;47.422;15.018;2023-05-07T02:14:49;8.20;99.90
23669;DHT22;12011;47.422;15.018;2023-05-07T02:17:19;8.40;99.90
23669;DHT22;12011;47.422;15.018;2023-05-07T02:19:52;8.50;99.90
23669;DHT22;12011;47.422;15.018;2023-05-07T02:22:30;8.50;99.90
23669;DHT22;12011;47.422;15.018;2023-05-07T02:25:12;8.50;99.90
23669;DHT22;12011;47.422;15.018;2023-05-07T02:27:45;8.40;99.90
23669;DHT22;12011;47.422;15.018;2023-05-07T02:30:16;8.40;99.90
23669;DHT22;12011;47.422;15.018;2023-05-07T02:33:09;8.50;99.90
23669;DHT22;12011;47.422;15.018;2023-05-07T02:35:42;8.40;99.90
23669;DHT22;12011;47.422;15.018;2023-05-07T02:38:25;8.60;99.90
23669;DHT22;12011;47.422;15.018;2023-05-07T02:40:58;8.70;99.90
23669;DHT22;12011;47.422;15.018;2023-05-07T02:43:32;8.70;99.90
23669;DHT22;12011;47.422;15.018;2023-05-07T02:46:07;8.80;99.90
23669;DHT22;12011;47.422;15.018;2023-05-07T02:48:47;8.80;99.90
23669;DHT22;12011;47.422;15.018;2023-05-07T02:51:36;8.70;99.90
23669;DHT22;12011;47.422;15.018;2023-05-07T02:54:16;8.80;99.90
23669;DHT22;12011;47.422;15.018;2023-05-07T02:56:57;8.90;99.90
23669;DHT22;12011;47.422;15.018;2023-05-07T02:59:28;8.80;99.90
23669;DHT22;12011;47.422;15.018;2023-05-07T03:02:01;8.80;99.90
23669;DHT22;12011;47.422;15.018;2023-05-07T03:04:36;8.70;99.90
23669;DHT22;12011;47.422;15.018;2023-05-07T03:07:10;8.70;99.90
23669;DHT22;12011;47.422;15.018;2023-05-07T03:09:41;8.70;99.90
23669;DHT22;12011;47.422;15.018;2023-05-07T03:12:31;8.70;99.90
23669;DHT22;12011;47.422;15.018;2023-05-07T03:15:01;8.70;99.90
23669;DHT22;12011;47.422;15.018;2023-05-07T03:17:41;8.80;99.90
23669;DHT22;12011;47.422;15.018;2023-05-07T03:20:15;8.80;99.90
23669;DHT22;12011;47.422;15.018;2023-05-07T03:22:51;8.90;99.90
23669;DHT22;12011;47.422;15.018;2023-05-07T03:25:32;8.90;99.90
23669;DHT22;12011;47.422;15.018;2023-05-07T03:28:14;8.90;99.90
23669;DHT22;12011;47.422;15.018;2023-05-07T03:30:50;9.00;99.90
23669;DHT22;12011;47.422;15.018;2023-05-07T03:33:22;9.00;99.90
23669;DHT22;12011;47.422;15.018;2023-05-07T03:35:56;9.00;99.90
23669;DHT22;12011;47.422;15.018;2023-05-07T03:38:27;9.10;99.90
23669;DHT22;12011;47.422;15.018;2023-05-07T03:40:57;9.10;99.90
23669;DHT22;12011;47.422;15.018;2023-05-07T03:43:30;9.10;99.90
23669;DHT22;12011;47.422;15.018;2023-05-07T03:46:05;9.20;99.90
23669;DHT22;12011;47.422;15.018;2023-05-07T03:48:35;9.20;99.90
23669;DHT22;12011;47.422;15.018;2023-05-07T03:51:06;9.20;99.90
23669;DHT22;12011;47.422;15.018;2023-05-07T03:53:36;9.20;99.90
23669;DHT22;12011;47.422;15.018;2023-05-07T03:56:05;9.30;99.90
23669;DHT22;12011;47.422;15.018;2023-05-07T03:58:40;9.30;99.90
23669;DHT22;12011;47.422;15.018;2023-05-07T04:01:11;9.30;99.90
23669;DHT22;12011;47.422;15.018;2023-05-07T04:03:41;9.30;99.90
23669;DHT22;12011;47.422;15.018;2023-05-07T04:06:10;9.30;99.90
23669;DHT22;12011;47.422;15.018;2023-05-07T04:08:44;9.40;99.90
23669;DHT22;12011;47.422;15.018;2023-05-07T04:11:13;9.50;99.90
23669;DHT22;12011;47.422;15.018;2023-05-07T04:13:46;9.50;99.90
23669;DHT22;12011;47.422;15.018;2023-05-07T04:16:19;9.60;99.90
23669;DHT22;12011;47.422;15.018;2023-05-07T04:18:49;9.70;99.90
23669;DHT22;12011;47.422;15.018;2023-05-07T04:21:20;9.80;99.90
23669;DHT22;12011;47.422;15.018;2023-05-07T04:23:51;9.80;99.90
23669;DHT22;12011;47.422;15.018;2023-05-07T04:26:20;9.90;99.90
23669;DHT22;12011;47.422;15.018;2023-05-07T04:28:53;9.90;99.90
23669;DHT22;12011;47.422;15.018;2023-05-07T04:31:24;10.00;99.90
23669;DHT22;12011;47.422;15.018;2023-05-07T04:33:54;10.00;99.90
23669;DHT22;12011;47.422;15.018;2023-05-07T04:36:24;10.00;99.90
23669;DHT22;12011;47.422;15.018;2023-05-07T04:39:06;10.10;99.90
23669;DHT22;12011;47.422;15.018;2023-05-07T04:41:37;10.10;99.90
23669;DHT22;12011;47.422;15.018;2023-05-07T04:44:10;10.20;99.90
23669;DHT22;12011;47.422;15.018;2023-05-07T04:46:39;10.30;99.90
23669;DHT22;12011;47.422;15.018;2023-05-07T04:49:10;10.30;99.90
23669;DHT22;12011;47.422;15.018;2023-05-07T04:51:39;10.30;99.90
23669;DHT22;12011;47.422;15.018;2023-05-07T04:54:11;10.40;99.90
23669;DHT22;12011;47.422;15.018;2023-05-07T04:56:40;10.50;99.90
23669;DHT22;12011;47.422;15.018;2023-05-07T04:59:13;10.50;99.90
23669;DHT22;12011;47.422;15.018;2023-05-07T05:01:43;10.50;99.90
23669;DHT22;12011;47.422;15.018;2023-05-07T05:04:12;10.60;99.90
23669;DHT22;12011;47.422;15.018;2023-05-07T05:06:42;10.60;99.90
23669;DHT22;12011;47.422;15.018;2023-05-07T05:09:13;10.60;99.90
23669;DHT22;12011;47.422;15.018;2023-05-07T05:11:43;10.70;99.90
23669;DHT22;12011;47.422;15.018;2023-05-07T05:14:15;10.80;99.90
23669;DHT22;12011;47.422;15.018;2023-05-07T05:16:45;10.80;99.90
23669;DHT22;12011;47.422;15.018;2023-05-07T05:19:15;10.90;99.90
23669;DHT22;12011;47.422;15.018;2023-05-07T05:21:46;10.90;99.90
23669;DHT22;12011;47.422;15.018;2023-05-07T05:24:16;11.00;99.90
23669;DHT22;12011;47.422;15.018;2023-05-07T05:26:46;11.10;99.90
23669;DHT22;12011;47.422;15.018;2023-05-07T05:29:18;11.20;99.90
23669;DHT22;12011;47.422;15.018;2023-05-07T05:31:48;11.30;99.90
23669;DHT22;12011;47.422;15.018;2023-05-07T05:34:18;11.40;99.90
23669;DHT22;12011;47.422;15.018;2023-05-07T05:36:48;11.50;99.90
23669;DHT22;12011;47.422;15.018;2023-05-07T05:39:19;11.70;99.90
23669;DHT22;12011;47.422;15.018;2023-05-07T05:41:51;11.70;99.90
23669;DHT22;12011;47.422;15.018;2023-05-07T05:44:24;11.80;99.90
23669;DHT22;12011;47.422;15.018;2023-05-07T05:46:54;12.10;99.90
23669;DHT22;12011;47.422;15.018;2023-05-07T05:49:25;12.10;99.90
23669;DHT22;12011;47.422;15.018;2023-05-07T05:51:55;12.20;99.90
23669;DHT22;12011;47.422;15.018;2023-05-07T05:54:27;12.40;99.90
23669;DHT22;12011;47.422;15.018;2023-05-07T05:56:56;12.70;99.90
23669;DHT22;12011;47.422;15.018;2023-05-07T05:59:29;12.80;99.90
23669;DHT22;12011;47.422;15.018;2023-05-07T06:01:59;13.10;99.90
23669;DHT22;12011;47.422;15.018;2023-05-07T06:04:29;13.30;99.90
23669;DHT22;12011;47.422;15.018;2023-05-07T06:06:59;13.50;99.90
23669;DHT22;12011;47.422;15.018;2023-05-07T06:09:29;13.70;99.90
23669;DHT22;12011;47.422;15.018;2023-05-07T06:11:58;13.70;99.90
23669;DHT22;12011;47.422;15.018;2023-05-07T06:14:32;13.90;99.90
23669;DHT22;12011;47.422;15.018;2023-05-07T06:17:02;14.10;99.90
23669;DHT22;12011;47.422;15.018;2023-05-07T06:19:31;14.20;99.90
23669;DHT22;12011;47.422;15.018;2023-05-07T06:22:02;14.40;99.90
23669;DHT22;12011;47.422;15.018;2023-05-07T06:24:33;14.40;99.90
23669;DHT22;12011;47.422;15.018;2023-05-07T06:27:05;14.40;99.90
23669;DHT22;12011;47.422;15.018;2023-05-07T06:29:37;14.50;99.90
23669;DHT22;12011;47.422;15.018;2023-05-07T06:32:14;14.60;99.90
23669;DHT22;12011;47.422;15.018;2023-05-07T06:34:45;14.80;99.90
23669;DHT22;12011;47.422;15.018;2023-05-07T06:37:15;14.60;99.90
23669;DHT22;12011;47.422;15.018;2023-05-07T06:39:53;15.00;99.90
23669;DHT22;12011;47.422;15.018;2023-05-07T06:42:22;15.20;99.90
23669;DHT22;12011;47.422;15.018;2023-05-07T06:45:00;15.40;99.90
23669;DHT22;12011;47.422;15.018;2023-05-07T06:47:30;15.50;99.90
23669;DHT22;12011;47.422;15.018;2023-05-07T06:50:01;15.20;99.40
23669;DHT22;12011;47.422;15.018;2023-05-07T06:52:33;15.60;99.90
23669;DHT22;12011;47.422;15.018;2023-05-07T06:55:07;15.90;99.90
23669;DHT22;12011;47.422;15.018;2023-05-07T06:57:38;16.00;99.40
23669;DHT22;12011;47.422;15.018;2023-05-07T07:00:11;16.20;97.40
23669;DHT22;12011;47.422;15.018;2023-05-07T07:02:48;16.10;99.90
23669;DHT22;12011;47.422;15.018;2023-05-07T07:05:21;16.00;97.90
23669;DHT22;12011;47.422;15.018;2023-05-07T07:07:51;16.30;99.00
23669;DHT22;12011;47.422;15.018;2023-05-07T07:10:22;16.40;97.20
23669;DHT22;12011;47.422;15.018;2023-05-07T07:12:53;16.90;94.70
23669;DHT22;12011;47.422;15.018;2023-05-07T07:15:26;17.70;98.10
23669;DHT22;12011;47.422;15.018;2023-05-07T07:17:56;18.10;93.50
23669;DHT22;12011;47.422;15.018;2023-05-07T07:20:26;18.80;89.30
23669;DHT22;12011;47.422;15.018;2023-05-07T07:22:56;19.20;76.20
23669;DHT22;12011;47.422;15.018;2023-05-07T07:25:26;20.10;70.90
23669;DHT22;12011;47.422;15.018;2023-05-07T07:27:56;19.80;70.00
23669;DHT22;12011;47.422;15.018;2023-05-07T07:30:30;19.60;70.60
23669;DHT22;12011;47.422;15.018;2023-05-07T07:33:00;20.00;82.70
23669;DHT22;12011;47.422;15.018;2023-05-07T07:35:35;20.30;72.20
23669;DHT22;12011;47.422;15.018;2023-05-07T07:38:06;20.40;64.40
23669;DHT22;12011;47.422;15.018;2023-05-07T07:40:35;20.40;64.30
23669;DHT22;12011;47.422;15.018;2023-05-07T07:43:08;20.10;66.60
23669;DHT22;12011;47.422;15.018;2023-05-07T07:45:40;20.20;61.90
23669;DHT22;12011;47.422;15.018;2023-05-07T07:48:10;20.20;62.60
23669;DHT22;12011;47.422;15.018;2023-05-07T07:50:42;19.90;64.60
23669;DHT22;12011;47.422;15.018;2023-05-07T07:53:13;20.70;60.00
23669;DHT22;12011;47.422;15.018;2023-05-07T07:55:43;21.60;69.70
23669;DHT22;12011;47.422;15.018;2023-05-07T07:58:16;22.20;65.10
23669;DHT22;12011;47.422;15.018;2023-05-07T08:00:49;21.60;55.70
23669;DHT22;12011;47.422;15.018;2023-05-07T08:03:19;21.30;55.60
23669;DHT22;12011;47.422;15.018;2023-05-07T08:05:52;21.20;61.30
23669;DHT22;12011;47.422;15.018;2023-05-07T08:08:22;22.30;57.60
23669;DHT22;12011;47.422;15.018;2023-05-07T08:10:53;22.80;51.50
23669;DHT22;12011;47.422;15.018;2023-05-07T08:13:30;23.30;52.80
23669;DHT22;12011;47.422;15.018;2023-05-07T08:16:03;23.30;48.70
23669;DHT22;12011;47.422;15.018;2023-05-07T08:18:35;23.70;49.00
23669;DHT22;12011;47.422;15.018;2023-05-07T08:21:04;23.60;50.50
23669;DHT22;12011;47.422;15.018;2023-05-07T08:23:35;24.10;47.40
23669;DHT22;12011;47.422;15.018;2023-05-07T08:26:05;24.30;45.50
23669;DHT22;12011;47.422;15.018;2023-05-07T08:28:35;25.50;46.20
23669;DHT22;12011;47.422;15.018;2023-05-07T08:31:08;25.80;44.50
23669;DHT22;12011;47.422;15.018;2023-05-07T08:33:40;26.20;46.70
23669;DHT22;12011;47.422;15.018;2023-05-07T08:36:10;25.50;42.70
23669;DHT22;12011;47.422;15.018;2023-05-07T08:38:39;25.60;43.40
23669;DHT22;12011;47.422;15.018;2023-05-07T08:41:12;25.60;43.40
23669;DHT22;12011;47.422;15.018;2023-05-07T08:43:48;25.80;44.90
23669;DHT22;12011;47.422;15.018;2023-05-07T08:46:22;25.60;42.30
23669;DHT22;12011;47.422;15.018;2023-05-07T08:48:55;26.00;42.40
23669;DHT22;12011;47.422;15.018;2023-05-07T08:51:25;26.10;42.70
23669;DHT22;12011;47.422;15.018;2023-05-07T08:53:55;26.00;40.40
23669;DHT22;12011;47.422;15.018;2023-05-07T08:56:29;26.30;41.50
23669;DHT22;12011;47.422;15.018;2023-05-07T08:58:59;26.60;42.30
23669;DHT22;12011;47.422;15.018;2023-05-07T09:01:32;26.50;41.90
23669;DHT22;12011;47.422;15.018;2023-05-07T09:04:10;26.10;38.70
23669;DHT22;12011;47.422;15.018;2023-05-07T09:06:40;27.00;40.10
23669;DHT22;12011;47.422;15.018;2023-05-07T09:09:17;26.50;40.00
23669;DHT22;12011;47.422;15.018;2023-05-07T09:11:48;27.60;41.10
23669;DHT22;12011;47.422;15.018;2023-05-07T09:14:27;27.30;40.60
23669;DHT22;12011;47.422;15.018;2023-05-07T09:17:00;26.70;38.50
23669;DHT22;12011;47.422;15.018;2023-05-07T09:19:33;27.20;39.80
23669;DHT22;12011;47.422;15.018;2023-05-07T09:22:06;27.20;38.50
23669;DHT22;12011;47.422;15.018;2023-05-07T09:24:47;27.30;39.00
23669;DHT22;12011;47.422;15.018;2023-05-07T09:27:22;27.90;39.60
23669;DHT22;12011;47.422;15.018;2023-05-07T09:29:54;28.10;36.10
23669;DHT22;12011;47.422;15.018;2023-05-07T09:32:26;28.30;41.50
23669;DHT22;12011;47.422;15.018;2023-05-07T09:34:58;27.80;36.40
23669;DHT22;12011;47.422;15.018;2023-05-07T09:37:34;28.30;36.50
23669;DHT22;12011;47.422;15.018;2023-05-07T09:40:43;28.80;37.20
23669;DHT22;12011;47.422;15.018;2023-05-07T09:43:15;27.70;35.20
23669;DHT22;12011;47.422;15.018;2023-05-07T09:45:54;28.00;39.40
23669;DHT22;12011;47.422;15.018;2023-05-07T09:48:30;29.30;41.20
23669;DHT22;12011;47.422;15.018;2023-05-07T09:51:10;28.40;40.40
23669;DHT22;12011;47.422;15.018;2023-05-07T09:53:45;28.20;35.00
23669;DHT22;12011;47.422;15.018;2023-05-07T09:56:17;27.20;37.10
23669;DHT22;12011;47.422;15.018;2023-05-07T09:58:49;26.60;39.80
23669;DHT22;12011;47.422;15.018;2023-05-07T10:01:25;25.50;39.40
23669;DHT22;12011;47.422;15.018;2023-05-07T10:04:01;24.60;41.10
23669;DHT22;12011;47.422;15.018;2023-05-07T10:06:35;24.20;43.70
23669;DHT22;12011;47.422;15.018;2023-05-07T10:09:08;23.60;42.80
23669;DHT22;12011;47.422;15.018;2023-05-07T10:11:39;23.30;44.50
23669;DHT22;12011;47.422;15.018;2023-05-07T10:14:10;22.70;46.40
23669;DHT22;12011;47.422;15.018;2023-05-07T10:16:41;22.40;45.90
23669;DHT22;12011;47.422;15.018;2023-05-07T10:19:19;22.30;45.60
23669;DHT22;12011;47.422;15.018;2023-05-07T10:21:56;22.10;48.60
23669;DHT22;12011;47.422;15.018;2023-05-07T10:24:37;22.10;50.00
23669;DHT22;12011;47.422;15.018;2023-05-07T10:27:15;22.10;47.30
23669;DHT22;12011;47.422;15.018;2023-05-07T10:30:00;22.00;45.70
23669;DHT22;12011;47.422;15.018;2023-05-07T10:32:42;21.90;50.60
23669;DHT22;12011;47.422;15.018;2023-05-07T10:35:24;21.70;50.30
23669;DHT22;12011;47.422;15.018;2023-05-07T10:38:04;21.30;61.70
23669;DHT22;12011;47.422;15.018;2023-05-07T10:40:37;21.00;57.80
23669;DHT22;12011;47.422;15.018;2023-05-07T10:43:09;21.30;79.50
23669;DHT22;12011;47.422;15.018;2023-05-07T10:46:10;21.30;78.60
23669;DHT22;12011;47.422;15.018;2023-05-07T10:49:09;21.60;88.30
23669;DHT22;12011;47.422;15.018;2023-05-07T10:52:14;22.10;84.80
23669;DHT22;12011;47.422;15.018;2023-05-07T10:55:21;22.20;82.50
23669;DHT22;12011;47.422;15.018;2023-05-07T10:58:31;22.00;71.20
23669;DHT22;12011;47.422;15.018;2023-05-07T11:01:52;22.00;66.90
23669;DHT22;12011;47.422;15.018;2023-05-07T11:05:20;21.80;74.20
23669;DHT22;12011;47.422;15.018;2023-05-07T11:08:25;21.50;70.50
23669;DHT22;12011;47.422;15.018;2023-05-07T11:11:05;21.10;68.20
23669;DHT22;12011;47.422;15.018;2023-05-07T11:13:45;21.00;85.40
23669;DHT22;12011;47.422;15.018;2023-05-07T11:16:29;20.90;80.00
23669;DHT22;12011;47.422;15.018;2023-05-07T11:19:50;20.80;84.40
23669;DHT22;12011;47.422;15.018;2023-05-07T11:23:04;21.00;85.90
23669;DHT22;12011;47.422;15.018;2023-05-07T11:26:11;21.00;88.70
23669;DHT22;12011;47.422;15.018;2023-05-07T11:29:03;21.10;73.70
23669;DHT22;12011;47.422;15.018;2023-05-07T11:32:22;21.80;66.00
23669;DHT22;12011;47.422;15.018;2023-05-07T11:35:13;21.90;72.70
23669;DHT22;12011;47.422;15.018;2023-05-07T11:38:02;22.70;69.50
23669;DHT22;12011;47.422;15.018;2023-05-07T11:41:52;23.30;67.10
23669;DHT22;12011;47.422;15.018;2023-05-07T11:45:01;23.10;53.10
23669;DHT22;12011;47.422;15.018;2023-05-07T11:48:10;23.50;56.40
23669;DHT22;12011;47.422;15.018;2023-05-07T11:51:25;23.80;53.10
23669;DHT22;12011;47.422;15.018;2023-05-07T11:54:18;24.10;46.90
23669;DHT22;12011;47.422;15.018;2023-05-07T11:57:25;23.80;55.00
23669;DHT22;12011;47.422;15.018;2023-05-07T12:00:26;24.40;52.40
23669;DHT22;12011;47.422;15.018;2023-05-07T12:03:15;25.30;50.70
23669;DHT22;12011;47.422;15.018;2023-05-07T12:06:23;25.60;50.40
23669;DHT22;12011;47.422;15.018;2023-05-07T12:09:26;24.20;47.80
23669;DHT22;12011;47.422;15.018;2023-05-07T12:12:56;23.60;49.10
23669;DHT22;12011;47.422;15.018;2023-05-07T12:16:01;24.30;50.70
23669;DHT22;12011;47.422;15.018;2023-05-07T12:18:45;24.00;46.50
23669;DHT22;12011;47.422;15.018;2023-05-07T12:21:32;24.00;46.10
23669;DHT22;12011;47.422;15.018;2023-05-07T12:24:13;24.60;49.40
23669;DHT22;12011;47.422;15.018;2023-05-07T12:26:54;24.20;46.30
23669;DHT22;12011;47.422;15.018;2023-05-07T12:29:47;24.50;43.10
23669;DHT22;12011;47.422;15.018;2023-05-07T12:32:48;25.00;48.00
23669;DHT22;12011;47.422;15.018;2023-05-07T12:36:02;25.10;46.60
23669;DHT22;12011;47.422;15.018;2023-05-07T12:38:58;25.40;45.10
23669;DHT22;12011;47.422;15.018;2023-05-07T12:42:24;25.60;44.50
23669;DHT22;12011;47.422;15.018;2023-05-07T12:45:08;25.10;46.50
23669;DHT22;12011;47.422;15.018;2023-05-07T12:48:10;24.90;44.00
23669;DHT22;12011;47.422;15.018;2023-05-07T12:50:50;24.90;44.40
23669;DHT22;12011;47.422;15.018;2023-05-07T12:53:28;24.60;46.30
23669;DHT22;12011;47.422;15.018;2023-05-07T12:56:15;24.80;46.80
23669;DHT22;12011;47.422;15.018;2023-05-07T12:59:01;24.70;45.60
23669;DHT22;12011;47.422;15.018;2023-05-07T13:02:17;24.60;46.60
23669;DHT22;12011;47.422;15.018;2023-05-07T13:05:17;24.90;43.70
23669;DHT22;12011;47.422;15.018;2023-05-07T13:08:12;24.80;45.40
23669;DHT22;12011;47.422;15.018;2023-05-07T13:11:17;24.20;44.40
23669;DHT22;12011;47.422;15.018;2023-05-07T13:14:05;24.20;45.70
23669;DHT22;12011;47.422;15.018;2023-05-07T13:20:01;23.90;48.90
23669;DHT22;12011;47.422;15.018;2023-05-07T13:22:55;23.30;48.20
23669;DHT22;12011;47.422;15.018;2023-05-07T13:26:13;22.60;49.80
23669;DHT22;12011;47.422;15.018;2023-05-07T13:29:10;22.70;50.50
23669;DHT22;12011;47.422;15.018;2023-05-07T13:32:16;22.40;48.10
23669;DHT22;12011;47.422;15.018;2023-05-07T13:35:22;22.30;52.60
23669;DHT22;12011;47.422;15.018;2023-05-07T13:38:04;22.00;49.70
23669;DHT22;12011;47.422;15.018;2023-05-07T13:44:08;21.40;52.00
23669;DHT22;12011;47.422;15.018;2023-05-07T13:47:29;21.10;54.20
23669;DHT22;12011;47.422;15.018;2023-05-07T13:50:42;20.90;57.50
23669;DHT22;12011;47.422;15.018;2023-05-07T13:53:40;20.50;65.20
23669;DHT22;12011;47.422;15.018;2023-05-07T13:56:42;20.20;72.20
23669;DHT22;12011;47.422;15.018;2023-05-07T13:59:49;20.00;71.90
23669;DHT22;12011;47.422;15.018;2023-05-07T14:02:47;19.70;64.10
23669;DHT22;12011;47.422;15.018;2023-05-07T14:05:18;19.40;72.50
23669;DHT22;12011;47.422;15.018;2023-05-07T14:07:52;18.40;81.70
23669;DHT22;12011;47.422;15.018;2023-05-07T14:10:24;17.70;93.50
23669;DHT22;12011;47.422;15.018;2023-05-07T14:12:54;17.00;99.90
23669;DHT22;12011;47.422;15.018;2023-05-07T14:15:26;16.50;99.90
23669;DHT22;12011;47.422;15.018;2023-05-07T14:17:56;16.00;99.90
23669;DHT22;12011;47.422;15.018;2023-05-07T14:20:26;15.50;99.90
23669;DHT22;12011;47.422;15.018;2023-05-07T14:23:01;15.20;99.90
23669;DHT22;12011;47.422;15.018;2023-05-07T14:25:31;15.00;99.90
23669;DHT22;12011;47.422;15.018;2023-05-07T14:28:00;14.70;99.90
23669;DHT22;12011;47.422;15.018;2023-05-07T14:30:30;14.50;99.90
23669;DHT22;12011;47.422;15.018;2023-05-07T14:33:00;14.50;99.90
23669;DHT22;12011;47.422;15.018;2023-05-07T14:35:29;14.50;99.90
23669;DHT22;12011;47.422;15.018;2023-05-07T14:38:01;14.70;99.90
23669;DHT22;12011;47.422;15.018;2023-05-07T14:40:31;14.80;99.90
23669;DHT22;12011;47.422;15.018;2023-05-07T14:43:01;15.00;99.90
23669;DHT22;12011;47.422;15.018;2023-05-07T14:45:33;15.10;99.90
23669;DHT22;12011;47.422;15.018;2023-05-07T14:48:03;15.00;99.90
23669;DHT22;12011;47.422;15.018;2023-05-07T14:50:35;14.90;99.90
23669;DHT22;12011;47.422;15.018;2023-05-07T14:53:09;14.90;99.90
23669;DHT22;12011;47.422;15.018;2023-05-07T14:55:39;14.90;99.90
23669;DHT22;12011;47.422;15.018;2023-05-07T14:58:09;14.80;99.90
23669;DHT22;12011;47.422;15.018;2023-05-07T15:00:39;14.70;99.90
23669;DHT22;12011;47.422;15.018;2023-05-07T15:03:10;14.70;99.90
23669;DHT22;12011;47.422;15.018;2023-05-07T15:05:42;14.70;99.90
23669;DHT22;12011;47.422;15.018;2023-05-07T15:08:15;14.80;99.90
23669;DHT22;12011;47.422;15.018;2023-05-07T15:10:44;14.90;99.90
23669;DHT22;12011;47.422;15.018;2023-05-07T15:13:14;14.90;99.90
23669;DHT22;12011;47.422;15.018;2023-05-07T15:15:45;14.80;99.90
23669;DHT22;12011;47.422;15.018;2023-05-07T15:18:15;14.70;99.90
23669;DHT22;12011;47.422;15.018;2023-05-07T15:20:45;14.70;99.90
23669;DHT22;12011;47.422;15.018;2023-05-07T15:23:17;14.70;99.90
23669;DHT22;12011;47.422;15.018;2023-05-07T15:25:48;14.70;99.90
23669;DHT22;12011;47.422;15.018;2023-05-07T15:28:18;14.70;99.90
23669;DHT22;12011;47.422;15.018;2023-05-07T15:30:48;14.70;99.90
23669;DHT22;12011;47.422;15.018;2023-05-07T15:33:18;14.70;99.90
23669;DHT22;12011;47.422;15.018;2023-05-07T15:35:48;14.50;99.90
23669;DHT22;12011;47.422;15.018;2023-05-07T15:38:21;14.60;99.90
23669;DHT22;12011;47.422;15.018;2023-05-07T15:40:53;14.60;99.90
23669;DHT22;12011;47.422;15.018;2023-05-07T15:43:22;14.80;99.90
23669;DHT22;12011;47.422;15.018;2023-05-07T15:45:52;14.80;99.90
23669;DHT22;12011;47.422;15.018;2023-05-07T15:48:22;14.80;99.90
23669;DHT22;12011;47.422;15.018;2023-05-07T15:50:51;14.80;99.90
23669;DHT22;12011;47.422;15.018;2023-05-07T15:53:24;14.80;99.90
23669;DHT22;12011;47.422;15.018;2023-05-07T15:55:53;14.90;99.90
23669;DHT22;12011;47.422;15.018;2023-05-07T15:58:23;15.10;99.90
23669;DHT22;12011;47.422;15.018;2023-05-07T16:00:53;15.10;99.90
23669;DHT22;12011;47.422;15.018;2023-05-07T16:03:22;15.30;99.90
23669;DHT22;12011;47.422;15.018;2023-05-07T16:05:52;15.40;99.90
23669;DHT22;12011;47.422;15.018;2023-05-07T16:08:25;15.50;99.90
23669;DHT22;12011;47.422;15.018;2023-05-07T16:10:55;15.40;99.90
23669;DHT22;12011;47.422;15.018;2023-05-07T16:13:24;15.30;99.90
23669;DHT22;12011;47.422;15.018;2023-05-07T16:15:55;15.30;99.90
23669;DHT22;12011;47.422;15.018;2023-05-07T16:18:26;15.20;99.90
23669;DHT22;12011;47.422;15.018;2023-05-07T16:20:57;15.10;99.90
23669;DHT22;12011;47.422;15.018;2023-05-07T16:23:31;15.00;99.90
23669;DHT22;12011;47.422;15.018;2023-05-07T16:26:02;15.00;99.90
23669;DHT22;12011;47.422;15.018;2023-05-07T16:28:33;14.90;99.90
23669;DHT22;12011;47.422;15.018;2023-05-07T16:31:02;14.90;99.90
23669;DHT22;12011;47.422;15.018;2023-05-07T16:33:35;14.80;99.90
23669;DHT22;12011;47.422;15.018;2023-05-07T16:36:05;14.70;99.90